KPVW

Details ICAO KPVW
Name HALE CO
Region United States
Timezone America/Chicago (UTC-5.0)
Plans Departing 6
Arriving 5
Stats Elevation 3,374 ft / 1,028 m (AMSL)
Location 34.168281° -101.717105°
Runways 2
Magnetic Variation 6.070° E
Sunrise 2018-05-27 11:39:31 UTC / 2018-05-27 06:39:31 Local
Sunset 2018-05-28 01:51:29 UTC / 2018-05-27 20:51:29 Local
Advertisement - Login to hide

Runways

ID Width Length Bearing (true) Bearing (mag) Surface Threshold Offset Overrun Length
04 100 ft / 30 m 5,996 ft / 1,828 m 50.59° 44.52° Asphalt 0 ft / 0 m 0 ft / 0 m
13 100 ft / 30 m 4,002 ft / 1,220 m 138.16° 132.09° Asphalt 0 ft / 0 m 0 ft / 0 m
22 100 ft / 30 m 5,996 ft / 1,828 m 230.60° 224.53° Asphalt 0 ft / 0 m 0 ft / 0 m
31 100 ft / 30 m 4,002 ft / 1,220 m 318.17° 312.10° Asphalt 0 ft / 0 m 0 ft / 0 m

Map

Weather


0- 5 10 15 20 25 30 35+ Temperature / ° C

Clouds and Precipitation
Forecast for 2018-05-27 18:00 UTC. Updated 2 hours ago

Ground ~20,000 ft ~40,000 ft Winds

METAR

KPVW 271935Z AUTO 16019G28KT 10SM CLR 36/08 A2984 RMK AO2 T03600081

TAF

TAF KPVW 271720Z 2718/2818 17016G24KT P6SM SCT120 SCT250 FM280100 15014KT P6SM FEW120 SCT250

Frequencies

Recorded 119.67 MHz AWOS 3
Clearance 121.70 MHz LUBBOCK CLNC DEL
Unicom 123.00 MHz CTAF/UNICOM
Approach 119.20 MHz LUBBOCK APP/DEP
Warning: Do not use this data for real-world aviation or navigation. No guarantee of current accuracy is given.